Wizard — WDC6082 — position and weather

sailwx.info

Track history (hours):
 
Tides and Currents Weather Stations Pressure Air Temp Water Temp Dewpoint Dewpoint Depression Visibility Wind Speed Wind Dir Waves Ship Positions

Wizard

Owner: K. H.Colburn Inc, Redmond, WA. More information available from US FCC via Universal Licensing System and Coast Guard Vessel Documentation Center.

Last reported at 2015-Jun-21 13:33 UTC. Time now 2015-Jun-30 03:30 UTC.
Position N 49°24' W 126°59'.
Warning: this ship's position is 8 days out of date.

Length 52 m; draft 0.4 m.

MMSI: 5491.

Date/timePositionNaut miles runAvg speedWind from/ knotsBaromVisibWave heightAir tempDewpointWater temp
2015-Jun-21 13:33N 49°24' W 126°59'10 9.8
2015-Jun-21 12:33N 49°19' W 126°47'10 9.7
2015-Jun-21 11:34N 49°14' W 126°34'10 9.6
2015-Jun-21 10:33N 49°09' W 126°21'9 9.3
2015-Jun-21 09:33N 49°04' W 126°09'9 9.2
2015-Jun-21 08:34N 48°59' W 125°58'9 9.3
2015-Jun-21 07:33N 48°54' W 125°46'9 9.3
2015-Jun-21 06:33N 48°49' W 125°33'9 9.4
2015-Jun-21 05:34N 48°45' W 125°21'9 9.1
2015-Jun-21 04:34N 48°40' W 125°09'9 9.2
2015-Jun-21 03:33N 48°35' W 124°57'9 9.4
2015-Jun-21 02:33N 48°31' W 124°44'9 8.7
2015-Jun-21 01:33N 48°28' W 124°32'8 8.5
2015-Jun-21 00:34N 48°24' W 124°20'9 8.6
2015-Jun-20 23:34N 48°21' W 124°08'8 8.5
2015-Jun-20 22:34N 48°18' W 123°57'6 9.8
2015-Jun-20 21:59N 48°17' W 123°48'510.1
2015-Jun-20 21:30N 48°16' W 123°41'210.7
2015-Jun-20 21:19N 48°16' W 123°38'810.5
2015-Jun-20 20:34N 48°15' W 123°26'1211.4
2015-Jun-20 19:33N 48°14' W 123°09'711.5
2015-Jun-20 18:57N 48°13' W 122°59'2011.2
2015-Jun-20 17:11N 48°00' W 122°36'711.9
2015-Jun-20 16:33N 47°55' W 122°29'010.7
2015-Jun-20 16:31N 47°55' W 122°28'1010.2
2015-Jun-20 15:33N 47°45' W 122°25'0 8.9
2015-Jun-20 15:31N 47°45' W 122°25'5 5.1
2015-Jun-20 14:35N 47°40' W 122°24'0 0.0
2015-Jun-20 14:33N 47°40' W 122°24'0 0.4
2015-Jun-20 13:33N 47°40' W 122°23'0 0.6
2015-Jun-20 13:29N 47°40' W 122°23'0 0.0
2015-Jun-20 12:33N 47°40' W 122°23'0 0.0
2015-Jun-20 12:33N 47°40' W 122°23'0 0.0
2015-Jun-20 11:33N 47°40' W 122°23'0 0.0
2015-Jun-20 11:32N 47°40' W 122°23'0 0.0
2015-Jun-20 10:33N 47°40' W 122°23'0 0.1
2015-Jun-20 10:26N 47°40' W 122°23'0 0.0
2015-Jun-20 09:33N 47°40' W 122°23'0 0.0
2015-Jun-20 09:25N 47°40' W 122°23'0 0.0
2015-Jun-20 08:32N 47°40' W 122°23'0 0.0
2015-Jun-20 08:30N 47°40' W 122°23'0 0.0
2015-Jun-20 07:33N 47°40' W 122°23'0 0.6
2015-Jun-20 07:29N 47°40' W 122°23'0 0.0
2015-Jun-20 06:32N 47°40' W 122°23'0 0.0
2015-Jun-20 06:08N 47°40' W 122°23'0 0.0
2015-Jun-20 06:03N 47°40' W 122°23'0 0.0
2015-Jun-20 05:10N 47°40' W 122°23'0 0.0
2015-Jun-20 04:33N 47°40' W 122°23'0 0.0
2015-Jun-20 04:31N 47°40' W 122°23'0 0.0
2015-Jun-20 03:31N 47°40' W 122°23'0 0.0
2015-Jun-20 03:30N 47°40' W 122°23'0 0.0
2015-Jun-20 02:33N 47°40' W 122°23'0 0.6
2015-Jun-20 02:29N 47°40' W 122°23'0 0.0
2015-Jun-20 01:33N 47°40' W 122°23'0 0.0
2015-Jun-20 01:29N 47°40' W 122°23'0 0.0
2015-Jun-20 00:33N 47°40' W 122°23'0 0.0
2015-Jun-20 00:33N 47°40' W 122°23'0 0.0
2015-Jun-19 23:33N 47°40' W 122°23'0 0.0
2015-Jun-19 23:33N 47°40' W 122°23'0 0.0
2015-Jun-19 22:33N 47°40' W 122°23'0 0.0
2015-Jun-19 22:32N 47°40' W 122°23'0 0.0
2015-Jun-19 21:33N 47°40' W 122°23'0 0.0
2015-Jun-19 21:32N 47°40' W 122°23'0 0.0
2015-Jun-19 20:33N 47°40' W 122°23'0 0.0
2015-Jun-19 20:32N 47°40' W 122°23'0 0.0
2015-Jun-19 19:32N 47°40' W 122°23'0 0.0
2015-Jun-19 19:31N 47°40' W 122°23'0 0.0
2015-Jun-19 18:33N 47°40' W 122°23'0 0.1
2015-Jun-19 18:31N 47°40' W 122°23'0 0.0
2015-Jun-19 17:33N 47°40' W 122°23'0 0.0
2015-Jun-19 17:20N 47°40' W 122°23'0 0.1
2015-Jun-19 16:33N 47°40' W 122°23'0 0.7
2015-Jun-19 16:29N 47°40' W 122°23'0 0.0
2015-Jun-19 15:33N 47°40' W 122°23'0 0.0
2015-Jun-19 15:24N 47°40' W 122°23'0 0.0
2015-Jun-19 14:33N 47°40' W 122°23'0 0.0
2015-Jun-19 14:33N 47°40' W 122°23'0 0.0
2015-Jun-19 13:33N 47°40' W 122°23'0 0.0
2015-Jun-19 13:21N 47°40' W 122°23'0 0.0
2015-Jun-19 12:33N 47°40' W 122°23'0 0.0
2015-Jun-19 12:31N 47°40' W 122°23'0 0.0
2015-Jun-19 11:33N 47°40' W 122°23'0 0.0
2015-Jun-19 11:29N 47°40' W 122°23'0 0.0
2015-Jun-19 10:33N 47°40' W 122°23'0 0.0
2015-Jun-19 10:33N 47°40' W 122°23'0 0.0
2015-Jun-19 09:33N 47°40' W 122°23'0 0.0
2015-Jun-19 09:33N 47°40' W 122°23'0 0.0
2015-Jun-19 08:33N 47°40' W 122°23'0 0.0
2015-Jun-19 08:33N 47°40' W 122°23'0 0.0
2015-Jun-19 07:33N 47°40' W 122°23'0 1.6
2015-Jun-19 07:32N 47°40' W 122°23'0 0.0
2015-Jun-19 06:33N 47°40' W 122°23'0 0.0
2015-Jun-19 06:32N 47°40' W 122°23'0 0.1
2015-Jun-19 06:07N 47°40' W 122°23'0 0.1
2015-Jun-19 05:33N 47°40' W 122°23'0 0.0
2015-Jun-19 04:33N 47°40' W 122°23'0 0.8
2015-Jun-19 04:31N 47°40' W 122°23'0 0.0
2015-Jun-19 03:30N 47°40' W 122°23'0 0.0
2015-Jun-19 03:30N 47°40' W 122°23'0 0.0
2015-Jun-19 02:30N 47°40' W 122°23'0 1.5
2015-Jun-19 02:29N 47°40' W 122°23'0 0.0
2015-Jun-19 01:33N 47°40' W 122°23'0 0.6
2015-Jun-19 01:29N 47°40' W 122°23'0 0.0
2015-Jun-19 00:33N 47°40' W 122°23'0 0.0
2015-Jun-19 00:29N 47°40' W 122°23'0 0.0
2015-Jun-18 23:33N 47°40' W 122°23'0 0.0
2015-Jun-18 23:23N 47°40' W 122°23'0 0.0
2015-Jun-18 22:33N 47°40' W 122°23'0 0.0
2015-Jun-18 22:32N 47°40' W 122°23'0 0.0
2015-Jun-18 21:33N 47°40' W 122°23'0 0.2
2015-Jun-18 21:31N 47°40' W 122°23'0 0.0
2015-Jun-18 20:33N 47°40' W 122°23'0 0.0
2015-Jun-18 20:31N 47°40' W 122°23'0 0.0
2015-Jun-18 19:33N 47°40' W 122°23'0 0.0
2015-Jun-18 19:31N 47°40' W 122°23'0 0.0
2015-Jun-18 18:33N 47°40' W 122°23'0 0.1
2015-Jun-18 18:30N 47°40' W 122°23'0 0.0
2015-Jun-18 17:32N 47°40' W 122°23'0 0.0
2015-Jun-18 17:30N 47°40' W 122°23'0 0.0
2015-Jun-18 16:33N 47°40' W 122°23'0 0.7
2015-Jun-18 16:30N 47°40' W 122°23'0 0.0
2015-Jun-18 15:33N 47°40' W 122°23'0 0.1
2015-Jun-18 15:30N 47°40' W 122°23'0 0.0
2015-Jun-18 14:33N 47°40' W 122°23'0 0.0
2015-Jun-18 14:29N 47°40' W 122°23'0 0.0
2015-Jun-18 13:33N 47°40' W 122°23'0 0.6
2015-Jun-18 13:29N 47°40' W 122°23'0 0.0
2015-Jun-18 12:33N 47°40' W 122°23'0 0.0
2015-Jun-18 12:29N 47°40' W 122°23'0 0.0
2015-Jun-18 11:33N 47°40' W 122°23'0 0.0
2015-Jun-18 11:13N 47°40' W 122°23'0 0.0
2015-Jun-18 10:33N 47°40' W 122°23'0 0.0
2015-Jun-18 10:33N 47°40' W 122°23'0 0.0
2015-Jun-18 09:33N 47°40' W 122°23'0 0.0
2015-Jun-18 09:32N 47°40' W 122°23'0 0.0
2015-Jun-18 08:33N 47°40' W 122°23'0 0.2
2015-Jun-18 08:32N 47°40' W 122°23'0 0.0
2015-Jun-18 07:33N 47°40' W 122°23'0 1.1
2015-Jun-18 07:31N 47°40' W 122°23'0 0.1
2015-Jun-18 06:45N 47°40' W 122°23'0 0.0
2015-Jun-18 06:33N 47°40' W 122°23'0 0.0
2015-Jun-18 05:33N 47°40' W 122°23'0 0.8
2015-Jun-18 05:30N 47°40' W 122°23'0 0.0
2015-Jun-18 04:33N 47°40' W 122°23'0 0.0
2015-Jun-18 04:04N 47°40' W 122°23'0 0.0
2015-Jun-18 03:33N 47°40' W 122°23'0 0.0
2015-Jun-18 03:33N 47°40' W 122°23'0 0.0
2015-Jun-18 02:33N 47°40' W 122°23'0 0.4
2015-Jun-18 02:33N 47°40' W 122°23'0 0.0
2015-Jun-18 01:33N 47°40' W 122°23'0 0.0
2015-Jun-18 01:32N 47°40' W 122°23'0 0.0
2015-Jun-18 00:33N 47°40' W 122°23'0 0.2
2015-Jun-18 00:32N 47°40' W 122°23'0 0.5
2015-Jun-17 23:33N 47°40' W 122°23'0 0.0
2015-Jun-17 23:32N 47°40' W 122°23'0 0.0
2015-Jun-17 22:33N 47°40' W 122°23'0 0.0
2015-Jun-17 22:30N 47°40' W 122°23'0 0.0
2015-Jun-17 21:27N 47°40' W 122°23'0 0.0
2015-Jun-17 21:25N 47°40' W 122°23'0 0.0
2015-Jun-17 20:33N 47°40' W 122°23'0 0.1
2015-Jun-17 20:30N 47°40' W 122°23'0 0.0
2015-Jun-17 19:34N 47°40' W 122°23'0 0.0
2015-Jun-17 19:33N 47°40' W 122°23'0 0.0
2015-Jun-17 18:24N 47°40' W 122°23'0 0.0
2015-Jun-17 18:23N 47°40' W 122°23'0 0.0
2015-Jun-17 17:33N 47°40' W 122°23'0 0.0
2015-Jun-17 17:32N 47°40' W 122°23'0 0.0
2015-Jun-17 16:33N 47°40' W 122°23'0 0.1
2015-Jun-17 16:31N 47°40' W 122°23'0 0.0
2015-Jun-17 15:33N 47°40' W 122°23'0 0.0
2015-Jun-17 15:31N 47°40' W 122°23'0 0.0
2015-Jun-17 14:33N 47°40' W 122°23'0 0.0
2015-Jun-17 14:31N 47°40' W 122°23'0 0.0
2015-Jun-17 13:33N 47°40' W 122°23'0 0.0
2015-Jun-17 13:31N 47°40' W 122°23'0 0.0
2015-Jun-17 12:34N 47°40' W 122°23'0 0.0
2015-Jun-17 12:30N 47°40' W 122°23'0 0.0
2015-Jun-17 11:33N 47°40' W 122°23'0 0.0
2015-Jun-17 11:09N 47°40' W 122°23'0 0.0
2015-Jun-17 10:33N 47°40' W 122°23'0 0.0
2015-Jun-17 10:29N 47°40' W 122°23'0 0.0
2015-Jun-17 09:33N 47°40' W 122°23'0 0.0
2015-Jun-17 09:29N 47°40' W 122°23'0 0.0
2015-Jun-17 08:34N 47°40' W 122°23'0 0.0
2015-Jun-17 08:33N 47°40' W 122°23'0 0.0
2015-Jun-17 07:33N 47°40' W 122°23'0 0.0
2015-Jun-17 07:32N 47°40' W 122°23'0 0.0
2015-Jun-17 06:33N 47°40' W 122°23'0 0.0
2015-Jun-17 06:32N 47°40' W 122°23'0 0.0
2015-Jun-17 06:07N 47°40' W 122°23'0 0.0
2015-Jun-17 05:33N 47°40' W 122°23'0 0.0
2015-Jun-17 04:33N 47°40' W 122°23'0 0.0
2015-Jun-17 04:31N 47°40' W 122°23'0 0.0
2015-Jun-17 03:33N 47°40' W 122°23'0 0.0
2015-Jun-17 03:31N 47°40' W 122°23'0 0.0
2015-Jun-17 02:34N 47°40' W 122°23'0 0.0
2015-Jun-17 02:30N 47°40' W 122°23'0 0.0
2015-Jun-17 01:32N 47°40' W 122°23'0 0.0
2015-Jun-17 01:30N 47°40' W 122°23'0 0.0
2015-Jun-17 00:33N 47°40' W 122°23'0 0.0
2015-Jun-17 00:30N 47°40' W 122°23'0 0.0
2015-Jun-16 23:33N 47°40' W 122°23'0 0.0
2015-Jun-16 23:30N 47°40' W 122°23'0 0.0
2015-Jun-16 22:33N 47°40' W 122°23'0 0.0
2015-Jun-16 22:29N 47°40' W 122°23'0 0.0
2015-Jun-16 20:37N 47°40' W 122°23'0 0.1
2015-Jun-16 20:32N 47°40' W 122°23'0 0.0
2015-Jun-16 20:18N 47°40' W 122°23'1 1.0
2015-Jun-16 19:34N 47°40' W 122°24'0 0.0
2015-Jun-16 19:32N 47°40' W 122°24'2 1.6
2015-Jun-16 18:33N 47°41' W 122°25'0 1.3
2015-Jun-16 18:30N 47°41' W 122°25'0 0.3
2015-Jun-16 17:33N 47°41' W 122°25'  
Track history (hours):
 
Tides and Currents Weather Stations Pressure Air Temp Water Temp Dewpoint Dewpoint Depression Visibility Wind Speed Wind Dir Waves Ship Positions

Wizard

Owner: K. H.Colburn Inc, Redmond, WA. More information available from US FCC via Universal Licensing System and Coast Guard Vessel Documentation Center.

Last reported at 2015-Jun-21 13:33 UTC. Time now 2015-Jun-30 03:30 UTC.
Position N 49°24' W 126°59'.
Warning: this ship's position is 8 days out of date.

Length 52 m; draft 0.4 m.

MMSI: 5491.

Date/timePositionNaut miles runAvg speedWind from/ knotsBaromVisibWave heightAir tempDewpointWater temp
2015-Jun-21 13:33N 49°24' W 126°59'10 9.8
2015-Jun-21 12:33N 49°19' W 126°47'10 9.7
2015-Jun-21 11:34N 49°14' W 126°34'10 9.6
2015-Jun-21 10:33N 49°09' W 126°21'9 9.3
2015-Jun-21 09:33N 49°04' W 126°09'9 9.2
2015-Jun-21 08:34N 48°59' W 125°58'9 9.3
2015-Jun-21 07:33N 48°54' W 125°46'9 9.3
2015-Jun-21 06:33N 48°49' W 125°33'9 9.4
2015-Jun-21 05:34N 48°45' W 125°21'9 9.1
2015-Jun-21 04:34N 48°40' W 125°09'9 9.2
2015-Jun-21 03:33N 48°35' W 124°57'9 9.4
2015-Jun-21 02:33N 48°31' W 124°44'9 8.7
2015-Jun-21 01:33N 48°28' W 124°32'8 8.5
2015-Jun-21 00:34N 48°24' W 124°20'9 8.6
2015-Jun-20 23:34N 48°21' W 124°08'8 8.5
2015-Jun-20 22:34N 48°18' W 123°57'6 9.8
2015-Jun-20 21:59N 48°17' W 123°48'510.1
2015-Jun-20 21:30N 48°16' W 123°41'210.7
2015-Jun-20 21:19N 48°16' W 123°38'810.5
2015-Jun-20 20:34N 48°15' W 123°26'1211.4
2015-Jun-20 19:33N 48°14' W 123°09'711.5
2015-Jun-20 18:57N 48°13' W 122°59'2011.2
2015-Jun-20 17:11N 48°00' W 122°36'711.9
2015-Jun-20 16:33N 47°55' W 122°29'010.7
2015-Jun-20 16:31N 47°55' W 122°28'1010.2
2015-Jun-20 15:33N 47°45' W 122°25'0 8.9
2015-Jun-20 15:31N 47°45' W 122°25'5 5.1
2015-Jun-20 14:35N 47°40' W 122°24'0 0.0
2015-Jun-20 14:33N 47°40' W 122°24'0 0.4
2015-Jun-20 13:33N 47°40' W 122°23'0 0.6
2015-Jun-20 13:29N 47°40' W 122°23'0 0.0
2015-Jun-20 12:33N 47°40' W 122°23'0 0.0
2015-Jun-20 12:33N 47°40' W 122°23'0 0.0
2015-Jun-20 11:33N 47°40' W 122°23'0 0.0
2015-Jun-20 11:32N 47°40' W 122°23'0 0.0
2015-Jun-20 10:33N 47°40' W 122°23'0 0.1
2015-Jun-20 10:26N 47°40' W 122°23'0 0.0
2015-Jun-20 09:33N 47°40' W 122°23'0 0.0
2015-Jun-20 09:25N 47°40' W 122°23'0 0.0
2015-Jun-20 08:32N 47°40' W 122°23'0 0.0
2015-Jun-20 08:30N 47°40' W 122°23'0 0.0
2015-Jun-20 07:33N 47°40' W 122°23'0 0.6
2015-Jun-20 07:29N 47°40' W 122°23'0 0.0
2015-Jun-20 06:32N 47°40' W 122°23'0 0.0
2015-Jun-20 06:08N 47°40' W 122°23'0 0.0
2015-Jun-20 06:03N 47°40' W 122°23'0 0.0
2015-Jun-20 05:10N 47°40' W 122°23'0 0.0
2015-Jun-20 04:33N 47°40' W 122°23'0 0.0
2015-Jun-20 04:31N 47°40' W 122°23'0 0.0
2015-Jun-20 03:31N 47°40' W 122°23'0 0.0
2015-Jun-20 03:30N 47°40' W 122°23'0 0.0
2015-Jun-20 02:33N 47°40' W 122°23'0 0.6
2015-Jun-20 02:29N 47°40' W 122°23'0 0.0
2015-Jun-20 01:33N 47°40' W 122°23'0 0.0
2015-Jun-20 01:29N 47°40' W 122°23'0 0.0
2015-Jun-20 00:33N 47°40' W 122°23'0 0.0
2015-Jun-20 00:33N 47°40' W 122°23'0 0.0
2015-Jun-19 23:33N 47°40' W 122°23'0 0.0
2015-Jun-19 23:33N 47°40' W 122°23'0 0.0
2015-Jun-19 22:33N 47°40' W 122°23'0 0.0
2015-Jun-19 22:32N 47°40' W 122°23'0 0.0
2015-Jun-19 21:33N 47°40' W 122°23'0 0.0
2015-Jun-19 21:32N 47°40' W 122°23'0 0.0
2015-Jun-19 20:33N 47°40' W 122°23'0 0.0
2015-Jun-19 20:32N 47°40' W 122°23'0 0.0
2015-Jun-19 19:32N 47°40' W 122°23'0 0.0
2015-Jun-19 19:31N 47°40' W 122°23'0 0.0
2015-Jun-19 18:33N 47°40' W 122°23'0 0.1
2015-Jun-19 18:31N 47°40' W 122°23'0 0.0
2015-Jun-19 17:33N 47°40' W 122°23'0 0.0
2015-Jun-19 17:20N 47°40' W 122°23'0 0.1
2015-Jun-19 16:33N 47°40' W 122°23'0 0.7
2015-Jun-19 16:29N 47°40' W 122°23'0 0.0
2015-Jun-19 15:33N 47°40' W 122°23'0 0.0
2015-Jun-19 15:24N 47°40' W 122°23'0 0.0
2015-Jun-19 14:33N 47°40' W 122°23'0 0.0
2015-Jun-19 14:33N 47°40' W 122°23'0 0.0
2015-Jun-19 13:33N 47°40' W 122°23'0 0.0
2015-Jun-19 13:21N 47°40' W 122°23'0 0.0
2015-Jun-19 12:33N 47°40' W 122°23'0 0.0
2015-Jun-19 12:31N 47°40' W 122°23'0 0.0
2015-Jun-19 11:33N 47°40' W 122°23'0 0.0
2015-Jun-19 11:29N 47°40' W 122°23'0 0.0
2015-Jun-19 10:33N 47°40' W 122°23'0 0.0
2015-Jun-19 10:33N 47°40' W 122°23'0 0.0
2015-Jun-19 09:33N 47°40' W 122°23'0 0.0
2015-Jun-19 09:33N 47°40' W 122°23'0 0.0
2015-Jun-19 08:33N 47°40' W 122°23'0 0.0
2015-Jun-19 08:33N 47°40' W 122°23'0 0.0
2015-Jun-19 07:33N 47°40' W 122°23'0 1.6
2015-Jun-19 07:32N 47°40' W 122°23'0 0.0
2015-Jun-19 06:33N 47°40' W 122°23'0 0.0
2015-Jun-19 06:32N 47°40' W 122°23'0 0.1
2015-Jun-19 06:07N 47°40' W 122°23'0 0.1
2015-Jun-19 05:33N 47°40' W 122°23'0 0.0
2015-Jun-19 04:33N 47°40' W 122°23'0 0.8
2015-Jun-19 04:31N 47°40' W 122°23'0 0.0
2015-Jun-19 03:30N 47°40' W 122°23'0 0.0
2015-Jun-19 03:30N 47°40' W 122°23'0 0.0
2015-Jun-19 02:30N 47°40' W 122°23'0 1.5
2015-Jun-19 02:29N 47°40' W 122°23'0 0.0
2015-Jun-19 01:33N 47°40' W 122°23'0 0.6
2015-Jun-19 01:29N 47°40' W 122°23'0 0.0
2015-Jun-19 00:33N 47°40' W 122°23'0 0.0
2015-Jun-19 00:29N 47°40' W 122°23'0 0.0
2015-Jun-18 23:33N 47°40' W 122°23'0 0.0
2015-Jun-18 23:23N 47°40' W 122°23'0 0.0
2015-Jun-18 22:33N 47°40' W 122°23'0 0.0
2015-Jun-18 22:32N 47°40' W 122°23'0 0.0
2015-Jun-18 21:33N 47°40' W 122°23'0 0.2
2015-Jun-18 21:31N 47°40' W 122°23'0 0.0
2015-Jun-18 20:33N 47°40' W 122°23'0 0.0
2015-Jun-18 20:31N 47°40' W 122°23'0 0.0
2015-Jun-18 19:33N 47°40' W 122°23'0 0.0
2015-Jun-18 19:31N 47°40' W 122°23'0 0.0
2015-Jun-18 18:33N 47°40' W 122°23'0 0.1
2015-Jun-18 18:30N 47°40' W 122°23'0 0.0
2015-Jun-18 17:32N 47°40' W 122°23'0 0.0
2015-Jun-18 17:30N 47°40' W 122°23'0 0.0
2015-Jun-18 16:33N 47°40' W 122°23'0 0.7
2015-Jun-18 16:30N 47°40' W 122°23'0 0.0
2015-Jun-18 15:33N 47°40' W 122°23'0 0.1
2015-Jun-18 15:30N 47°40' W 122°23'0 0.0
2015-Jun-18 14:33N 47°40' W 122°23'0 0.0
2015-Jun-18 14:29N 47°40' W 122°23'0 0.0
2015-Jun-18 13:33N 47°40' W 122°23'0 0.6
2015-Jun-18 13:29N 47°40' W 122°23'0 0.0
2015-Jun-18 12:33N 47°40' W 122°23'0 0.0
2015-Jun-18 12:29N 47°40' W 122°23'0 0.0
2015-Jun-18 11:33N 47°40' W 122°23'0 0.0
2015-Jun-18 11:13N 47°40' W 122°23'0 0.0
2015-Jun-18 10:33N 47°40' W 122°23'0 0.0
2015-Jun-18 10:33N 47°40' W 122°23'0 0.0
2015-Jun-18 09:33N 47°40' W 122°23'0 0.0
2015-Jun-18 09:32N 47°40' W 122°23'0 0.0
2015-Jun-18 08:33N 47°40' W 122°23'0 0.2
2015-Jun-18 08:32N 47°40' W 122°23'0 0.0
2015-Jun-18 07:33N 47°40' W 122°23'0 1.1
2015-Jun-18 07:31N 47°40' W 122°23'0 0.1
2015-Jun-18 06:45N 47°40' W 122°23'0 0.0
2015-Jun-18 06:33N 47°40' W 122°23'0 0.0
2015-Jun-18 05:33N 47°40' W 122°23'0 0.8
2015-Jun-18 05:30N 47°40' W 122°23'0 0.0
2015-Jun-18 04:33N 47°40' W 122°23'0 0.0
2015-Jun-18 04:04N 47°40' W 122°23'0 0.0
2015-Jun-18 03:33N 47°40' W 122°23'0 0.0
2015-Jun-18 03:33N 47°40' W 122°23'0 0.0
2015-Jun-18 02:33N 47°40' W 122°23'0 0.4
2015-Jun-18 02:33N 47°40' W 122°23'0 0.0
2015-Jun-18 01:33N 47°40' W 122°23'0 0.0
2015-Jun-18 01:32N 47°40' W 122°23'0 0.0
2015-Jun-18 00:33N 47°40' W 122°23'0 0.2
2015-Jun-18 00:32N 47°40' W 122°23'0 0.5
2015-Jun-17 23:33N 47°40' W 122°23'0 0.0
2015-Jun-17 23:32N 47°40' W 122°23'0 0.0
2015-Jun-17 22:33N 47°40' W 122°23'0 0.0
2015-Jun-17 22:30N 47°40' W 122°23'0 0.0
2015-Jun-17 21:27N 47°40' W 122°23'0 0.0
2015-Jun-17 21:25N 47°40' W 122°23'0 0.0
2015-Jun-17 20:33N 47°40' W 122°23'0 0.1
2015-Jun-17 20:30N 47°40' W 122°23'0 0.0
2015-Jun-17 19:34N 47°40' W 122°23'0 0.0
2015-Jun-17 19:33N 47°40' W 122°23'0 0.0
2015-Jun-17 18:24N 47°40' W 122°23'0 0.0
2015-Jun-17 18:23N 47°40' W 122°23'0 0.0
2015-Jun-17 17:33N 47°40' W 122°23'0 0.0
2015-Jun-17 17:32N 47°40' W 122°23'0 0.0
2015-Jun-17 16:33N 47°40' W 122°23'0 0.1
2015-Jun-17 16:31N 47°40' W 122°23'0 0.0
2015-Jun-17 15:33N 47°40' W 122°23'0 0.0
2015-Jun-17 15:31N 47°40' W 122°23'0 0.0
2015-Jun-17 14:33N 47°40' W 122°23'0 0.0
2015-Jun-17 14:31N 47°40' W 122°23'0 0.0
2015-Jun-17 13:33N 47°40' W 122°23'0 0.0
2015-Jun-17 13:31N 47°40' W 122°23'0 0.0
2015-Jun-17 12:34N 47°40' W 122°23'0 0.0
2015-Jun-17 12:30N 47°40' W 122°23'0 0.0
2015-Jun-17 11:33N 47°40' W 122°23'0 0.0
2015-Jun-17 11:09N 47°40' W 122°23'0 0.0
2015-Jun-17 10:33N 47°40' W 122°23'0 0.0
2015-Jun-17 10:29N 47°40' W 122°23'0 0.0
2015-Jun-17 09:33N 47°40' W 122°23'0 0.0
2015-Jun-17 09:29N 47°40' W 122°23'0 0.0
2015-Jun-17 08:34N 47°40' W 122°23'0 0.0
2015-Jun-17 08:33N 47°40' W 122°23'0 0.0
2015-Jun-17 07:33N 47°40' W 122°23'0 0.0
2015-Jun-17 07:32N 47°40' W 122°23'0 0.0
2015-Jun-17 06:33N 47°40' W 122°23'0 0.0
2015-Jun-17 06:32N 47°40' W 122°23'0 0.0
2015-Jun-17 06:07N 47°40' W 122°23'0 0.0
2015-Jun-17 05:33N 47°40' W 122°23'0 0.0
2015-Jun-17 04:33N 47°40' W 122°23'0 0.0
2015-Jun-17 04:31N 47°40' W 122°23'0 0.0
2015-Jun-17 03:33N 47°40' W 122°23'0 0.0
2015-Jun-17 03:31N 47°40' W 122°23'0 0.0
2015-Jun-17 02:34N 47°40' W 122°23'0 0.0
2015-Jun-17 02:30N 47°40' W 122°23'0 0.0
2015-Jun-17 01:32N 47°40' W 122°23'0 0.0
2015-Jun-17 01:30N 47°40' W 122°23'0 0.0
2015-Jun-17 00:33N 47°40' W 122°23'0 0.0
2015-Jun-17 00:30N 47°40' W 122°23'0 0.0
2015-Jun-16 23:33N 47°40' W 122°23'0 0.0
2015-Jun-16 23:30N 47°40' W 122°23'0 0.0
2015-Jun-16 22:33N 47°40' W 122°23'0 0.0
2015-Jun-16 22:29N 47°40' W 122°23'0 0.0
2015-Jun-16 20:37N 47°40' W 122°23'0 0.1
2015-Jun-16 20:32N 47°40' W 122°23'0 0.0
2015-Jun-16 20:18N 47°40' W 122°23'1 1.0
2015-Jun-16 19:34N 47°40' W 122°24'0 0.0
2015-Jun-16 19:32N 47°40' W 122°24'2 1.6
2015-Jun-16 18:33N 47°41' W 122°25'0 1.3
2015-Jun-16 18:30N 47°41' W 122°25'0 0.3
2015-Jun-16 17:33N 47°41' W 122°25'  

Dump ship's entire track history